Time;durP1;ratioP1;P1;durP2;ratioP2;P2;SDS_P1;SDS_P2;PMS_P1;PMS_P2;Temp;Humidity;BMP_temperature;BMP_pressure;BME280_temperature;BME280_humidity;BME280_pressure;Samples;Min_cycle;Max_cycle;Signal;HPM_P1;HPM_P2
2023/04/13 00:00:11;;;;;;;1.60;1.10;;;8.00;99.90;;;;;;5016457;28;20205;-76
2023/04/13 00:02:40;;;;;;;1.90;0.97;;;7.90;99.90;;;;;;5016105;28;20182;-76
2023/04/13 00:05:10;;;;;;;1.40;0.97;;;8.10;99.90;;;;;;5017780;28;20442;-77
2023/04/13 00:07:37;;;;;;;1.43;0.50;;;7.90;99.90;;;;;;5006759;28;21006;-76
2023/04/13 00:10:10;;;;;;;1.10;0.70;;;8.00;99.90;;;;;;5011656;28;20437;-76
2023/04/13 00:12:37;;;;;;;1.00;0.87;;;7.90;99.90;;;;;;5011324;28;20422;-77
2023/04/13 00:15:04;;;;;;;1.33;0.80;;;8.10;99.90;;;;;;4991194;28;20423;-76
2023/04/13 00:17:32;;;;;;;1.83;0.70;;;8.20;99.90;;;;;;4990838;28;20474;-76
2023/04/13 00:19:58;;;;;;;2.00;0.90;;;8.00;99.90;;;;;;4990556;28;20427;-77
2023/04/13 00:22:28;;;;;;;2.60;0.60;;;8.20;99.90;;;;;;4991204;28;20422;-77
2023/04/13 00:24:54;;;;;;;3.07;0.60;;;8.00;99.90;;;;;;5005708;28;20403;-76
2023/04/13 00:27:26;;;;;;;2.20;0.67;;;8.20;99.90;;;;;;4990451;28;20421;-76
2023/04/13 00:29:55;;;;;;;0.73;0.70;;;8.20;99.90;;;;;;4990428;28;20435;-76
2023/04/13 00:32:21;;;;;;;1.40;0.63;;;8.20;99.90;;;;;;5005131;28;20760;-76
2023/04/13 00:34:46;;;;;;;2.60;0.87;;;8.10;99.90;;;;;;5008791;28;20422;-77
2023/04/13 00:37:13;;;;;;;0.67;0.60;;;8.00;99.90;;;;;;5008500;28;20465;-77
2023/04/13 00:39:39;;;;;;;2.07;0.70;;;8.10;99.90;;;;;;5009469;28;20217;-77
2023/04/13 00:42:08;;;;;;;1.77;0.80;;;8.10;99.90;;;;;;5010039;28;20410;-77
2023/04/13 00:44:35;;;;;;;1.83;0.90;;;8.20;99.90;;;;;;5009551;28;20771;-76
2023/04/13 00:47:05;;;;;;;1.63;0.70;;;8.20;99.90;;;;;;5009605;28;20440;-76
2023/04/13 00:49:32;;;;;;;2.27;1.10;;;8.40;99.90;;;;;;5009484;28;20908;-76
2023/04/13 00:52:04;;;;;;;1.77;0.80;;;8.20;99.90;;;;;;5009777;28;20484;-77
2023/04/13 00:54:31;;;;;;;1.20;0.80;;;8.40;99.90;;;;;;5009337;28;20451;-77
2023/04/13 00:56:58;;;;;;;3.60;0.90;;;8.30;99.90;;;;;;5009288;28;20462;-77
2023/04/13 00:59:29;;;;;;;1.43;0.53;;;8.30;99.90;;;;;;5009415;28;20418;-76
2023/04/13 01:02:00;;;;;;;1.53;0.70;;;8.30;99.90;;;;;;5008594;28;20414;-76
2023/04/13 01:04:29;;;;;;;3.87;0.83;;;8.30;99.90;;;;;;5009253;28;20447;-76
2023/04/13 01:07:18;;;;;;;2.27;1.10;;;8.30;99.90;;;;;;5009154;28;20903;-76
2023/04/13 01:10:05;;;;;;;2.60;0.90;;;8.20;99.90;;;;;;5009373;28;20437;-76
2023/04/13 01:12:38;;;;;;;2.87;0.80;;;8.20;99.90;;;;;;5008842;28;20421;-76
2023/04/13 01:15:08;;;;;;;1.47;0.80;;;8.20;99.90;;;;;;5009014;28;20418;-76
2023/04/13 01:17:38;;;;;;;3.70;0.83;;;8.20;99.90;;;;;;5007650;28;20994;-76
2023/04/13 01:20:14;;;;;;;2.53;0.73;;;8.20;99.90;;;;;;5007824;28;20426;-76
2023/04/13 01:22:48;;;;;;;1.13;0.60;;;8.10;99.90;;;;;;5009384;28;20911;-76
2023/04/13 01:25:22;;;;;;;2.90;1.00;;;8.10;99.90;;;;;;5008968;28;20971;-76
2023/04/13 01:27:56;;;;;;;2.17;0.90;;;8.00;99.90;;;;;;5009019;28;20504;-76
2023/04/13 01:30:26;;;;;;;1.10;0.60;;;8.20;99.90;;;;;;5007855;28;21058;-76
2023/04/13 01:32:52;;;;;;;0.90;0.70;;;8.10;99.90;;;;;;4990306;28;20492;-76
2023/04/13 01:35:21;;;;;;;3.03;0.93;;;8.30;99.90;;;;;;4987415;28;20458;-76
2023/04/13 01:37:51;;;;;;;2.10;0.70;;;8.10;99.90;;;;;;5004207;28;20928;-76
2023/04/13 01:40:20;;;;;;;1.17;0.80;;;8.20;99.90;;;;;;4989317;28;20450;-76
2023/04/13 01:42:46;;;;;;;2.10;0.80;;;8.10;99.90;;;;;;4987924;28;20415;-76
2023/04/13 01:45:26;;;;;;;1.23;0.60;;;8.10;99.90;;;;;;5017163;28;20780;-76
2023/04/13 01:48:26;;;;;;;1.53;0.90;;;8.20;99.90;;;;;;5007619;28;20175;-76
2023/04/13 01:50:56;;;;;;;1.70;0.80;;;8.10;99.90;;;;;;5008989;28;20450;-76
2023/04/13 01:53:29;;;;;;;1.33;0.70;;;8.00;99.90;;;;;;5008889;28;20399;-76
2023/04/13 01:55:55;;;;;;;1.00;0.60;;;8.10;99.90;;;;;;5007959;28;20813;-76
2023/04/13 01:58:26;;;;;;;1.23;0.80;;;8.20;99.90;;;;;;5008475;28;20821;-76
2023/04/13 02:00:54;;;;;;;1.60;0.73;;;8.00;99.90;;;;;;5008955;28;20519;-77
2023/04/13 02:03:21;;;;;;;2.37;0.80;;;8.10;99.90;;;;;;5008540;28;20939;-77
2023/04/13 02:05:47;;;;;;;2.50;0.70;;;8.10;99.90;;;;;;5024122;28;20477;-77
2023/04/13 02:08:14;;;;;;;3.00;0.70;;;8.10;99.90;;;;;;5008830;28;20934;-76
2023/04/13 02:10:41;;;;;;;0.90;0.70;;;8.00;99.90;;;;;;5008510;28;20493;-77
2023/04/13 02:13:08;;;;;;;0.97;0.70;;;8.10;99.90;;;;;;5008490;28;20414;-76
2023/04/13 02:15:36;;;;;;;1.57;0.77;;;8.00;99.90;;;;;;5024055;28;20433;-77
2023/04/13 02:18:05;;;;;;;1.60;0.77;;;8.00;99.90;;;;;;5008499;28;20472;-77
2023/04/13 02:20:41;;;;;;;2.97;0.80;;;8.00;99.90;;;;;;5008489;28;20444;-77
2023/04/13 02:23:09;;;;;;;1.73;0.80;;;8.10;99.90;;;;;;5009879;28;20417;-77
2023/04/13 02:25:35;;;;;;;1.33;0.70;;;8.10;99.90;;;;;;5012402;28;20488;-77
2023/04/13 02:28:00;;;;;;;4.60;1.00;;;8.00;99.90;;;;;;5012583;28;20907;-76
2023/04/13 02:30:27;;;;;;;4.07;0.93;;;8.10;99.90;;;;;;5012744;28;20446;-77
2023/04/13 02:32:54;;;;;;;2.10;1.67;;;8.20;99.90;;;;;;4993730;28;20430;-77
2023/04/13 02:35:21;;;;;;;1.17;0.80;;;8.20;99.90;;;;;;4988899;28;20450;-77
2023/04/13 02:37:47;;;;;;;2.37;0.60;;;8.00;99.90;;;;;;4991260;28;20459;-77
2023/04/13 02:40:13;;;;;;;1.93;0.73;;;7.90;99.90;;;;;;4993012;28;20438;-75
2023/04/13 02:42:40;;;;;;;0.90;0.70;;;8.10;99.90;;;;;;4992908;28;20411;-77
2023/04/13 02:45:07;;;;;;;0.90;0.67;;;8.20;99.90;;;;;;5003555;28;20414;-77
2023/04/13 02:47:33;;;;;;;0.90;0.73;;;8.10;99.90;;;;;;5012130;28;20463;-76
2023/04/13 02:50:02;;;;;;;1.37;0.80;;;8.20;99.90;;;;;;5012290;28;20438;-77
2023/04/13 02:52:28;;;;;;;1.43;0.70;;;8.00;99.90;;;;;;5012531;28;20418;-77
2023/04/13 02:54:54;;;;;;;2.47;0.80;;;8.10;99.90;;;;;;5010989;28;20517;-77
2023/04/13 02:57:21;;;;;;;1.23;0.70;;;8.20;99.90;;;;;;5011776;28;20273;-77
2023/04/13 02:59:47;;;;;;;2.27;0.90;;;8.20;99.90;;;;;;5010913;28;20296;-77
2023/04/13 03:02:13;;;;;;;1.37;0.70;;;8.10;99.90;;;;;;5012422;28;20403;-76
2023/04/13 03:04:39;;;;;;;2.87;1.40;;;8.20;99.90;;;;;;5010568;28;20411;-77
2023/04/13 03:07:09;;;;;;;1.93;0.93;;;8.20;99.90;;;;;;5011818;28;20483;-77
2023/04/13 03:09:41;;;;;;;1.10;0.70;;;8.30;99.90;;;;;;5010633;28;20433;-76
2023/04/13 03:12:08;;;;;;;1.57;0.97;;;8.10;99.90;;;;;;5011069;28;20446;-77
2023/04/13 03:14:35;;;;;;;2.93;1.20;;;8.20;99.90;;;;;;5010751;28;21046;-76
2023/04/13 03:17:06;;;;;;;1.30;0.60;;;8.20;99.90;;;;;;5010437;28;20892;-76
2023/04/13 03:19:32;;;;;;;1.63;0.90;;;8.20;99.90;;;;;;5011417;28;20998;-76
2023/04/13 03:21:57;;;;;;;2.10;0.70;;;8.10;99.90;;;;;;5012327;28;20493;-76
2023/04/13 03:24:26;;;;;;;2.77;0.77;;;8.10;99.90;;;;;;5010436;28;20468;-77
2023/04/13 03:26:55;;;;;;;2.27;1.03;;;8.30;99.90;;;;;;5012081;28;20190;-76
2023/04/13 03:29:23;;;;;;;4.80;0.80;;;8.10;99.90;;;;;;5012515;28;20410;-77
2023/04/13 03:31:49;;;;;;;2.87;0.90;;;8.00;99.90;;;;;;5000801;28;20416;-76
2023/04/13 03:34:16;;;;;;;2.70;1.00;;;8.10;99.90;;;;;;4991501;28;21228;-77
2023/04/13 03:36:41;;;;;;;1.67;0.93;;;8.10;99.90;;;;;;4989725;28;20562;-76
2023/04/13 03:39:07;;;;;;;1.87;0.93;;;8.10;99.90;;;;;;4990690;28;20420;-77
2023/04/13 03:41:33;;;;;;;1.17;0.90;;;8.20;99.90;;;;;;4992053;28;20203;-76
2023/04/13 03:43:58;;;;;;;1.83;0.77;;;8.10;99.90;;;;;;5006854;28;20713;-76
2023/04/13 03:46:24;;;;;;;2.70;0.90;;;8.10;99.90;;;;;;4992482;28;20234;-76
2023/04/13 03:48:50;;;;;;;3.57;0.70;;;8.10;99.90;;;;;;4990564;28;20207;-76
2023/04/13 03:51:15;;;;;;;1.70;0.87;;;8.10;99.90;;;;;;4991756;28;20891;-77
2023/04/13 03:53:41;;;;;;;2.63;1.17;;;8.10;99.90;;;;;;4991948;28;20182;-76
2023/04/13 03:56:07;;;;;;;3.47;1.00;;;8.20;99.90;;;;;;4992042;28;20191;-76
2023/04/13 03:58:34;;;;;;;2.10;0.93;;;8.30;99.90;;;;;;4991714;28;20175;-76
2023/04/13 04:01:00;;;;;;;1.20;0.77;;;8.30;99.90;;;;;;4990876;28;20427;-76
2023/04/13 04:03:26;;;;;;;1.97;0.83;;;8.20;99.90;;;;;;4991009;28;20507;-77
2023/04/13 04:05:51;;;;;;;2.37;1.20;;;8.20;99.90;;;;;;4992062;28;20180;-76
2023/04/13 04:08:17;;;;;;;1.50;1.27;;;8.20;99.90;;;;;;5006667;28;20415;-77
2023/04/13 04:10:43;;;;;;;1.73;1.20;;;8.30;99.90;;;;;;4990029;28;20200;-76
2023/04/13 04:13:08;;;;;;;2.37;1.00;;;8.30;99.90;;;;;;4973695;28;20210;-77
2023/04/13 04:15:34;;;;;;;1.47;0.90;;;8.50;99.90;;;;;;4974334;28;20195;-76
2023/04/13 04:18:00;;;;;;;2.60;0.80;;;8.20;99.90;;;;;;5005952;28;20207;-77
2023/04/13 04:20:26;;;;;;;1.70;0.97;;;8.30;99.90;;;;;;4990860;28;20441;-76
2023/04/13 04:22:52;;;;;;;1.87;1.03;;;8.20;99.90;;;;;;4991143;28;20245;-77
2023/04/13 04:25:21;;;;;;;1.73;0.97;;;8.10;99.90;;;;;;4989817;28;20179;-76
2023/04/13 04:27:56;;;;;;;1.50;0.70;;;8.20;99.90;;;;;;4989903;28;20524;-77
2023/04/13 04:30:23;;;;;;;1.70;0.70;;;8.10;99.90;;;;;;4991087;28;20492;-76
2023/04/13 04:32:53;;;;;;;2.20;0.93;;;8.30;99.90;;;;;;5010711;28;20422;-78
2023/04/13 04:35:20;;;;;;;2.30;1.33;;;8.20;99.90;;;;;;5016134;28;20453;-78
2023/04/13 04:37:48;;;;;;;2.13;1.10;;;8.40;99.90;;;;;;5016896;28;20491;-77
2023/04/13 04:40:14;;;;;;;1.40;1.00;;;8.20;99.90;;;;;;5018360;28;20463;-78
2023/04/13 04:42:41;;;;;;;1.00;0.93;;;8.20;99.90;;;;;;5016159;28;20421;-77
2023/04/13 04:45:09;;;;;;;1.97;0.90;;;8.30;99.90;;;;;;5010686;28;20484;-77
2023/04/13 04:47:42;;;;;;;1.50;0.80;;;8.40;99.90;;;;;;5010616;28;20426;-77
2023/04/13 04:50:13;;;;;;;0.87;0.80;;;8.30;99.90;;;;;;5021958;28;20782;-77
2023/04/13 04:52:39;;;;;;;2.13;1.03;;;8.30;99.90;;;;;;5030351;28;20889;-78
2023/04/13 04:55:06;;;;;;;1.23;1.00;;;8.20;99.90;;;;;;5031415;28;20420;-77
2023/04/13 04:57:32;;;;;;;1.10;1.00;;;8.20;99.90;;;;;;5031109;28;20440;-77
2023/04/13 04:59:59;;;;;;;1.50;1.13;;;8.30;99.90;;;;;;5031462;28;20473;-77
2023/04/13 05:02:26;;;;;;;2.40;1.10;;;8.10;99.90;;;;;;5031364;28;20899;-77
2023/04/13 05:04:52;;;;;;;3.07;0.90;;;8.10;99.90;;;;;;5029930;28;20413;-77
2023/04/13 05:07:18;;;;;;;2.87;1.33;;;8.30;99.90;;;;;;5029513;28;20423;-77
2023/04/13 05:09:44;;;;;;;1.90;1.10;;;8.20;99.90;;;;;;5030957;28;20190;-77
2023/04/13 05:12:10;;;;;;;1.20;1.10;;;8.20;99.90;;;;;;5031373;28;20448;-78
2023/04/13 05:14:36;;;;;;;2.27;1.00;;;8.40;99.90;;;;;;5028796;28;20499;-78
2023/04/13 05:17:02;;;;;;;1.17;0.80;;;8.30;99.90;;;;;;5029549;28;20440;-77
2023/04/13 05:19:28;;;;;;;2.87;1.13;;;8.30;99.90;;;;;;5029722;28;20514;-77
2023/04/13 05:21:54;;;;;;;0.90;0.80;;;8.30;99.90;;;;;;5029994;28;20185;-77
2023/04/13 05:24:19;;;;;;;1.57;1.03;;;8.20;99.90;;;;;;5029492;28;20179;-76
2023/04/13 05:26:45;;;;;;;1.93;1.00;;;8.20;99.90;;;;;;5021819;28;20190;-77
2023/04/13 05:29:11;;;;;;;2.10;1.00;;;8.20;99.90;;;;;;5013059;28;20175;-77
2023/04/13 05:31:37;;;;;;;1.20;0.93;;;8.20;99.90;;;;;;5009859;28;20433;-76
2023/04/13 05:34:03;;;;;;;1.27;0.90;;;8.10;99.90;;;;;;5017132;28;20714;-77
2023/04/13 05:36:30;;;;;;;3.03;1.20;;;8.30;99.90;;;;;;5016346;28;20277;-76
2023/04/13 05:38:57;;;;;;;0.70;0.70;;;8.40;99.90;;;;;;5011642;28;20672;-78
2023/04/13 05:41:23;;;;;;;6.73;1.07;;;8.30;99.90;;;;;;5009228;28;20438;-76
2023/04/13 05:43:50;;;;;;;1.37;1.00;;;8.30;99.90;;;;;;5011866;28;20903;-76
2023/04/13 05:46:16;;;;;;;1.70;1.37;;;8.30;99.90;;;;;;5012102;28;20450;-77
2023/04/13 05:48:44;;;;;;;1.73;1.07;;;8.40;99.90;;;;;;4991497;28;20175;-76
2023/04/13 05:51:11;;;;;;;0.80;0.80;;;8.30;99.90;;;;;;5009010;28;20203;-76
2023/04/13 05:53:37;;;;;;;1.43;1.03;;;8.30;99.90;;;;;;5009191;28;20512;-76
2023/04/13 05:56:03;;;;;;;2.30;1.30;;;8.30;99.90;;;;;;5009424;28;20915;-77
2023/04/13 05:58:29;;;;;;;1.60;1.17;;;8.30;99.90;;;;;;5011104;28;20512;-76
2023/04/13 06:00:54;;;;;;;2.30;1.37;;;8.40;99.90;;;;;;5021025;28;20434;-76
2023/04/13 06:03:20;;;;;;;1.63;1.00;;;8.30;99.90;;;;;;5026983;28;20175;-76
2023/04/13 06:05:47;;;;;;;1.30;1.00;;;8.40;99.90;;;;;;5033069;28;20171;-76
2023/04/13 06:08:12;;;;;;;2.10;1.30;;;8.70;99.90;;;;;;5032600;28;20201;-76
2023/04/13 06:10:38;;;;;;;2.70;1.57;;;8.60;99.90;;;;;;5032664;28;20834;-76
2023/04/13 06:13:04;;;;;;;2.33;1.40;;;8.70;99.90;;;;;;5031558;28;20257;-76
2023/04/13 06:15:31;;;;;;;1.30;1.17;;;8.90;99.90;;;;;;5021520;28;20270;-76
2023/04/13 06:17:56;;;;;;;4.70;1.60;;;9.00;99.90;;;;;;5022858;28;20457;-76
2023/04/13 06:20:22;;;;;;;3.30;1.40;;;9.00;99.90;;;;;;5012780;28;20504;-76
2023/04/13 06:22:48;;;;;;;2.70;1.33;;;9.10;99.90;;;;;;5013052;28;20183;-76
2023/04/13 06:25:15;;;;;;;2.70;1.50;;;9.10;99.90;;;;;;5012617;28;20210;-77
2023/04/13 06:27:42;;;;;;;1.63;1.27;;;9.10;99.90;;;;;;5013915;28;20444;-76
2023/04/13 06:30:09;;;;;;;4.90;1.60;;;9.20;99.90;;;;;;5015826;28;20500;-76
2023/04/13 06:32:35;;;;;;;2.30;1.60;;;9.20;99.90;;;;;;5014896;28;20450;-76
2023/04/13 06:35:02;;;;;;;3.83;1.70;;;9.20;99.90;;;;;;5009979;28;20418;-77
2023/04/13 06:37:29;;;;;;;1.43;1.33;;;9.20;99.90;;;;;;5014643;28;20453;-77
2023/04/13 06:39:55;;;;;;;2.90;1.60;;;9.30;99.90;;;;;;5019623;28;20960;-78
2023/04/13 06:42:21;;;;;;;3.93;1.80;;;9.30;99.90;;;;;;5020720;28;21085;-77
2023/04/13 06:44:46;;;;;;;3.53;1.50;;;9.30;99.90;;;;;;5004051;28;20419;-76
2023/04/13 06:47:12;;;;;;;2.60;1.57;;;9.30;99.90;;;;;;5011661;28;20198;-77
2023/04/13 06:49:38;;;;;;;3.33;1.47;;;9.30;99.90;;;;;;5011912;28;20210;-76
2023/04/13 06:52:04;;;;;;;2.77;1.37;;;9.20;99.90;;;;;;5012360;28;20195;-77
2023/04/13 06:54:29;;;;;;;2.03;1.50;;;9.20;99.90;;;;;;4994504;28;20275;-76
2023/04/13 06:56:55;;;;;;;2.27;1.50;;;9.20;99.90;;;;;;5011821;28;20560;-76
2023/04/13 06:59:21;;;;;;;2.17;1.33;;;9.20;99.90;;;;;;5012500;28;20201;-76
2023/04/13 07:01:47;;;;;;;3.43;1.30;;;9.30;99.90;;;;;;5012390;28;20511;-77
2023/04/13 07:04:13;;;;;;;3.20;1.50;;;9.30;99.90;;;;;;5010717;28;20288;-77
2023/04/13 07:06:38;;;;;;;1.20;1.10;;;9.40;99.90;;;;;;5011353;28;20183;-77
2023/04/13 07:09:04;;;;;;;1.90;1.60;;;9.40;99.90;;;;;;5010981;28;20215;-76
2023/04/13 07:11:30;;;;;;;5.97;1.60;;;9.60;99.90;;;;;;5010766;28;20231;-76
2023/04/13 07:13:55;;;;;;;2.00;1.57;;;9.60;99.90;;;;;;5011884;28;20237;-76
2023/04/13 07:16:21;;;;;;;2.03;1.37;;;9.60;99.90;;;;;;5012209;28;20174;-76
2023/04/13 07:18:47;;;;;;;4.13;1.90;;;9.70;99.90;;;;;;5011585;28;20182;-76
2023/04/13 07:21:12;;;;;;;1.97;1.20;;;9.60;99.90;;;;;;5011784;28;20211;-77
2023/04/13 07:23:38;;;;;;;2.37;1.43;;;9.70;99.90;;;;;;5010561;28;20175;-78
2023/04/13 07:26:06;;;;;;;3.53;1.40;;;9.70;99.90;;;;;;5010934;28;20206;-77
2023/04/13 07:28:31;;;;;;;3.70;1.50;;;9.80;99.90;;;;;;5011737;28;20219;-76
2023/04/13 07:30:57;;;;;;;7.23;1.97;;;9.80;99.90;;;;;;5010409;28;20438;-76
2023/04/13 07:33:23;;;;;;;1.73;1.13;;;9.80;99.90;;;;;;5010058;28;20229;-77
2023/04/13 07:35:53;;;;;;;2.40;1.40;;;9.80;99.90;;;;;;5010127;28;20880;-76
2023/04/13 07:38:19;;;;;;;3.00;1.70;;;9.90;99.90;;;;;;5011138;28;20656;-76
2023/04/13 07:40:45;;;;;;;3.70;1.50;;;9.90;99.90;;;;;;5011315;28;20442;-77
2023/04/13 07:43:11;;;;;;;2.90;1.90;;;9.90;99.90;;;;;;5010131;28;20414;-76
2023/04/13 07:45:37;;;;;;;3.53;1.60;;;10.00;99.90;;;;;;5010642;28;20440;-77
2023/04/13 07:48:04;;;;;;;4.17;1.93;;;10.00;99.90;;;;;;5011457;28;20234;-77
2023/04/13 07:50:29;;;;;;;2.90;1.50;;;10.00;99.90;;;;;;5011471;28;20203;-76
2023/04/13 07:52:55;;;;;;;2.67;1.40;;;10.00;99.90;;;;;;5009942;28;20528;-77
2023/04/13 07:55:21;;;;;;;2.53;1.50;;;10.10;99.90;;;;;;5011408;28;20187;-77
2023/04/13 07:57:46;;;;;;;1.90;1.43;;;10.00;99.90;;;;;;5011090;28;20218;-77
2023/04/13 08:00:13;;;;;;;3.80;1.73;;;10.00;99.90;;;;;;5011132;28;20199;-77
2023/04/13 08:02:40;;;;;;;2.13;1.50;;;10.00;99.90;;;;;;5011228;28;20294;-76
2023/04/13 08:05:06;;;;;;;3.33;1.63;;;10.00;99.90;;;;;;5009913;28;20902;-77
2023/04/13 08:07:32;;;;;;;4.93;1.20;;;10.00;99.90;;;;;;5009676;28;20425;-77
2023/04/13 08:09:59;;;;;;;3.50;1.30;;;10.00;99.90;;;;;;5011040;28;20988;-77
2023/04/13 08:12:25;;;;;;;4.73;1.93;;;9.90;99.90;;;;;;5011434;28;20917;-77
2023/04/13 08:14:50;;;;;;;1.40;1.30;;;9.90;99.90;;;;;;5009814;28;20501;-77
2023/04/13 08:17:16;;;;;;;4.53;1.60;;;9.80;99.90;;;;;;5010733;28;20277;-77
2023/04/13 08:19:41;;;;;;;1.90;1.10;;;9.80;99.90;;;;;;4993624;28;20218;-76
2023/04/13 08:22:09;;;;;;;1.37;0.93;;;9.80;99.90;;;;;;5009831;28;20611;-77
2023/04/13 08:24:35;;;;;;;1.70;1.30;;;9.80;99.90;;;;;;5011066;28;20233;-76
2023/04/13 08:27:00;;;;;;;2.20;1.50;;;9.80;99.90;;;;;;5011322;28;20426;-76
2023/04/13 08:29:26;;;;;;;2.23;1.30;;;9.80;99.90;;;;;;5010357;28;20186;-76
2023/04/13 08:31:52;;;;;;;2.77;1.30;;;9.70;99.90;;;;;;5010455;28;20600;-76
2023/04/13 08:34:18;;;;;;;2.83;1.27;;;9.70;99.90;;;;;;5010024;28;20556;-76
2023/04/13 08:36:47;;;;;;;2.97;1.30;;;9.70;99.90;;;;;;5008224;28;20207;-75
2023/04/13 08:39:13;;;;;;;2.40;1.73;;;9.40;99.90;;;;;;5010063;28;20274;-76
2023/04/13 08:41:44;;;;;;;4.10;1.13;;;9.70;99.90;;;;;;5008468;28;20445;-76
2023/04/13 08:44:12;;;;;;;2.30;1.43;;;9.70;99.90;;;;;;5009816;28;20907;-76
2023/04/13 08:46:40;;;;;;;3.53;1.33;;;9.60;99.90;;;;;;5010133;28;20422;-76
2023/04/13 08:49:08;;;;;;;2.17;1.20;;;9.90;99.90;;;;;;5009988;28;20907;-76
2023/04/13 08:51:34;;;;;;;2.97;1.30;;;9.70;99.90;;;;;;5008747;28;20468;-76
2023/04/13 08:54:00;;;;;;;1.40;1.30;;;9.70;99.90;;;;;;5009743;28;20414;-76
2023/04/13 08:56:27;;;;;;;2.57;1.37;;;9.90;99.90;;;;;;5025196;28;20190;-76
2023/04/13 08:58:57;;;;;;;2.40;1.20;;;9.70;99.90;;;;;;5009807;28;20645;-76
2023/04/13 09:01:25;;;;;;;2.83;1.63;;;9.60;99.90;;;;;;5025103;28;20811;-76
2023/04/13 09:04:00;;;;;;;6.90;1.90;;;9.70;99.90;;;;;;5008369;28;20421;-76
2023/04/13 09:06:33;;;;;;;2.17;1.50;;;9.60;99.90;;;;;;5024816;28;20472;-76
2023/04/13 09:09:04;;;;;;;2.60;1.70;;;9.60;99.90;;;;;;5008220;28;20453;-76
2023/04/13 09:11:31;;;;;;;2.60;1.80;;;9.60;99.90;;;;;;5008141;28;21086;-76
2023/04/13 09:13:56;;;;;;;2.90;1.73;;;9.60;99.90;;;;;;5009446;28;20421;-76
2023/04/13 09:16:22;;;;;;;3.50;2.07;;;9.70;99.90;;;;;;5009398;28;20414;-76
2023/04/13 09:18:52;;;;;;;2.03;1.80;;;9.70;99.90;;;;;;5009019;28;20274;-76
2023/04/13 09:21:18;;;;;;;2.03;1.40;;;9.70;99.90;;;;;;5009301;28;20203;-76
2023/04/13 09:23:56;;;;;;;2.30;1.77;;;9.60;99.90;;;;;;5024469;28;20933;-76
2023/04/13 09:26:22;;;;;;;1.97;1.60;;;9.80;99.90;;;;;;5009684;28;20811;-77
2023/04/13 09:28:51;;;;;;;4.20;2.10;;;9.60;99.90;;;;;;5009222;28;20508;-76
2023/04/13 09:31:17;;;;;;;6.83;2.70;;;9.70;99.90;;;;;;5001905;28;20433;-76
2023/04/13 09:33:45;;;;;;;3.57;2.07;;;9.60;99.90;;;;;;4989143;28;20415;-76
2023/04/13 09:36:19;;;;;;;6.70;3.20;;;9.70;99.90;;;;;;5004490;28;20407;-76
2023/04/13 09:38:54;;;;;;;3.23;2.17;;;9.70;99.90;;;;;;4989550;28;20473;-76
2023/04/13 09:41:36;;;;;;;5.03;2.20;;;9.70;99.90;;;;;;5004572;28;20449;-76
2023/04/13 09:44:13;;;;;;;3.60;2.30;;;9.70;99.90;;;;;;4992757;28;20777;-76
2023/04/13 09:46:39;;;;;;;2.93;2.23;;;9.80;99.90;;;;;;5009322;28;20432;-76
2023/04/13 09:49:05;;;;;;;4.13;2.30;;;9.80;99.90;;;;;;5024268;28;20418;-76
2023/04/13 09:51:35;;;;;;;5.07;2.00;;;9.80;99.90;;;;;;5009109;28;20195;-76
2023/04/13 09:54:01;;;;;;;4.50;2.50;;;9.80;99.90;;;;;;5008962;28;20446;-76
2023/04/13 09:56:27;;;;;;;3.33;2.40;;;9.90;99.90;;;;;;5009215;28;20457;-76
2023/04/13 09:58:53;;;;;;;7.10;2.60;;;10.10;99.90;;;;;;5009052;28;20221;-76
2023/04/13 10:01:19;;;;;;;7.03;2.27;;;10.30;99.90;;;;;;5008892;28;20430;-76
2023/04/13 10:03:46;;;;;;;7.73;2.33;;;10.40;99.90;;;;;;5024211;28;20190;-76
2023/04/13 10:06:12;;;;;;;4.93;2.23;;;10.60;99.90;;;;;;5009158;28;20452;-76
2023/04/13 10:08:41;;;;;;;10.27;2.77;;;10.60;99.90;;;;;;5008747;28;20426;-76
2023/04/13 10:11:13;;;;;;;6.50;2.00;;;10.70;99.90;;;;;;5008901;28;20442;-76
2023/04/13 10:14:01;;;;;;;6.47;2.40;;;10.70;99.90;;;;;;5007724;28;20452;-76
2023/04/13 10:16:45;;;;;;;2.30;2.10;;;10.70;99.90;;;;;;5009019;28;20414;-76
2023/04/13 10:19:17;;;;;;;5.50;2.30;;;10.70;99.90;;;;;;5009039;28;20406;-76
2023/04/13 10:21:45;;;;;;;4.43;1.93;;;10.80;99.90;;;;;;5007756;28;21059;-76
2023/04/13 10:24:11;;;;;;;6.23;1.90;;;10.70;99.90;;;;;;5008799;28;20448;-76
2023/04/13 10:26:38;;;;;;;5.13;1.90;;;10.70;99.90;;;;;;5009054;28;20501;-76
2023/04/13 10:29:05;;;;;;;4.47;2.70;;;10.60;99.90;;;;;;5007474;28;20469;-76
2023/04/13 10:31:38;;;;;;;5.20;1.70;;;10.60;99.90;;;;;;5000733;28;20533;-76
2023/04/13 10:34:05;;;;;;;19.40;3.63;;;10.50;99.90;;;;;;4989102;28;20446;-76
2023/04/13 10:36:40;;;;;;;5.23;1.87;;;10.50;99.90;;;;;;4987390;28;20422;-76
2023/04/13 10:39:07;;;;;;;7.67;2.13;;;10.50;99.90;;;;;;4988773;28;20477;-76
2023/04/13 10:41:33;;;;;;;5.30;2.37;;;10.50;99.90;;;;;;5002857;28;20833;-76
2023/04/13 10:44:03;;;;;;;4.83;2.10;;;10.40;99.90;;;;;;4991865;28;20428;-76
2023/04/13 10:46:29;;;;;;;5.30;2.30;;;10.50;99.90;;;;;;4994880;28;20440;-76
2023/04/13 10:48:57;;;;;;;6.93;2.83;;;10.50;99.90;;;;;;5012153;28;20465;-76
2023/04/13 10:51:24;;;;;;;5.10;2.40;;;10.50;99.90;;;;;;5012304;28;20468;-76
2023/04/13 10:53:50;;;;;;;4.23;2.43;;;10.50;99.90;;;;;;5012190;28;20487;-76
2023/04/13 10:56:19;;;;;;;10.67;2.97;;;10.50;99.90;;;;;;5011151;28;20811;-76
2023/04/13 10:58:52;;;;;;;8.57;2.70;;;10.40;99.90;;;;;;5012114;28;20176;-76
2023/04/13 11:01:18;;;;;;;4.63;2.83;;;10.50;99.90;;;;;;5011905;28;20472;-76
2023/04/13 11:03:44;;;;;;;5.93;3.27;;;10.50;99.90;;;;;;5011872;28;20425;-76
2023/04/13 11:06:10;;;;;;;4.57;2.00;;;10.50;99.90;;;;;;5012247;28;20410;-76
2023/04/13 11:08:38;;;;;;;6.23;2.77;;;10.60;99.90;;;;;;5011806;28;20286;-76
2023/04/13 11:11:04;;;;;;;7.30;2.40;;;10.60;99.90;;;;;;5011764;28;20448;-76
2023/04/13 11:13:31;;;;;;;9.10;4.13;;;10.70;99.90;;;;;;5010190;28;20422;-76
2023/04/13 11:16:04;;;;;;;9.77;3.13;;;10.70;99.90;;;;;;5010914;28;20456;-76
2023/04/13 11:18:30;;;;;;;10.27;3.27;;;10.80;99.90;;;;;;5011297;28;20453;-76
2023/04/13 11:20:56;;;;;;;8.00;2.70;;;10.90;99.90;;;;;;5011454;28;20449;-76
2023/04/13 11:23:23;;;;;;;8.67;2.37;;;11.00;99.90;;;;;;5011106;28;20425;-76
2023/04/13 11:26:00;;;;;;;13.10;3.00;;;11.00;99.90;;;;;;5011684;28;20448;-77
2023/04/13 11:28:45;;;;;;;4.70;2.40;;;11.10;99.90;;;;;;5010017;28;20969;-76
2023/04/13 11:31:11;;;;;;;9.70;3.20;;;11.10;99.90;;;;;;5006271;28;20445;-76
2023/04/13 11:33:38;;;;;;;7.73;3.10;;;11.20;99.90;;;;;;4991528;28;20415;-76
2023/04/13 11:36:04;;;;;;;4.17;2.33;;;11.20;99.90;;;;;;4973777;28;20779;-76
2023/04/13 11:38:32;;;;;;;17.03;4.60;;;11.20;99.90;;;;;;4991110;28;20472;-77
2023/04/13 11:41:02;;;;;;;6.43;2.87;;;11.20;99.90;;;;;;4991447;28;20424;-76
2023/04/13 11:43:28;;;;;;;4.17;2.30;;;11.20;99.90;;;;;;4989840;28;20419;-76
2023/04/13 11:45:54;;;;;;;7.23;2.40;;;11.10;99.90;;;;;;5010041;28;20429;-76
2023/04/13 11:48:21;;;;;;;5.90;2.30;;;11.10;99.90;;;;;;5010924;28;20414;-76
2023/04/13 11:50:48;;;;;;;5.40;2.77;;;11.10;99.90;;;;;;5009716;28;20222;-76
2023/04/13 11:53:14;;;;;;;5.73;2.50;;;11.00;99.90;;;;;;5010657;28;20508;-77
2023/04/13 11:55:40;;;;;;;5.57;1.93;;;11.00;99.90;;;;;;5010573;28;20407;-76
2023/04/13 11:58:14;;;;;;;9.77;2.53;;;11.00;99.90;;;;;;5009158;28;20504;-76
2023/04/13 12:00:40;;;;;;;4.83;2.30;;;11.00;99.90;;;;;;5010623;28;20430;-76
2023/04/13 12:03:14;;;;;;;6.50;2.17;;;11.00;99.90;;;;;;5009187;28;20418;-76
2023/04/13 12:05:41;;;;;;;5.00;2.10;;;11.00;99.90;;;;;;5010712;28;20569;-76
2023/04/13 12:08:07;;;;;;;4.03;1.97;;;11.10;99.90;;;;;;5010167;28;20414;-75
2023/04/13 12:10:35;;;;;;;3.97;2.10;;;11.10;99.90;;;;;;5010259;28;20446;-76
2023/04/13 12:13:07;;;;;;;6.40;2.00;;;11.10;99.90;;;;;;5009292;28;20425;-76
2023/04/13 12:15:36;;;;;;;9.73;2.40;;;11.10;99.90;;;;;;5010770;28;20477;-76
2023/04/13 12:18:03;;;;;;;4.80;2.00;;;11.10;99.90;;;;;;5009008;28;20958;-76
2023/04/13 12:20:37;;;;;;;4.03;1.97;;;11.10;99.90;;;;;;5010078;28;20493;-76
2023/04/13 12:23:03;;;;;;;3.23;1.60;;;11.10;99.90;;;;;;5010131;28;20414;-76
2023/04/13 12:25:31;;;;;;;3.80;2.30;;;11.20;99.90;;;;;;5010369;28;20418;-76
2023/04/13 12:27:57;;;;;;;3.93;1.50;;;11.20;99.90;;;;;;5010046;28;20424;-76
2023/04/13 12:30:24;;;;;;;5.07;2.00;;;11.30;99.90;;;;;;5009962;28;20513;-76
2023/04/13 12:32:53;;;;;;;4.50;1.80;;;11.30;99.90;;;;;;4991697;28;20184;-76
2023/04/13 12:35:19;;;;;;;4.60;1.60;;;11.40;99.90;;;;;;4989947;28;20415;-76
2023/04/13 12:37:46;;;;;;;4.60;1.90;;;11.50;99.90;;;;;;5005300;28;20494;-76
2023/04/13 12:40:15;;;;;;;6.73;1.93;;;11.60;99.90;;;;;;4990671;28;20995;-76
2023/04/13 12:42:47;;;;;;;8.83;2.40;;;11.70;99.90;;;;;;4988986;28;20419;-76
2023/04/13 12:45:15;;;;;;;5.10;2.13;;;11.80;99.90;;;;;;4990390;28;20498;-76
2023/04/13 12:47:41;;;;;;;4.60;2.07;;;11.80;99.90;;;;;;4988690;28;20769;-76
2023/04/13 12:50:08;;;;;;;6.40;1.80;;;11.80;99.90;;;;;;4989955;28;20442;-76
2023/04/13 12:52:36;;;;;;;9.00;2.10;;;11.90;99.90;;;;;;5005394;28;20419;-76
2023/04/13 12:55:02;;;;;;;5.90;2.03;;;12.00;99.90;;;;;;4990068;28;21158;-76
2023/04/13 12:57:28;;;;;;;4.63;2.10;;;12.00;99.90;;;;;;5004924;28;20553;-76